Time;durP1;ratioP1;P1;durP2;ratioP2;P2;SDS_P1;SDS_P2;PMS_P1;PMS_P2;Temp;Humidity;BMP_temperature;BMP_pressure;BME280_temperature;BME280_humidity;BME280_pressure;Samples;Min_cycle;Max_cycle;Signal;HPM_P1;HPM_P2
2022/05/27 00:00:04;;;;;;;2.20;1.70;;;;;;;18.92;64.91;100260.48;2814715;82;21527;-91
2022/05/27 00:04:07;;;;;;;3.37;1.55;;;;;;;18.92;64.89;100262.32;2790088;83;21094;-90
2022/05/27 00:08:10;;;;;;;4.25;1.40;;;;;;;18.87;64.90;100253.45;2796861;83;21602;-90
2022/05/27 00:12:11;;;;;;;2.20;1.95;;;;;;;18.85;64.83;100254.12;2810535;82;21022;-89
2022/05/27 00:16:12;;;;;;;34.13;2.87;;;;;;;18.84;64.84;100245.70;2835695;83;21035;-90
2022/05/27 00:20:14;;;;;;;4.17;1.52;;;;;;;18.82;64.93;100240.52;2818547;82;20998;-90
2022/05/27 00:24:15;;;;;;;4.15;1.82;;;;;;;18.80;64.94;100233.13;2829694;83;21034;-90
2022/05/27 00:28:17;;;;;;;2.27;1.45;;;;;;;18.81;64.76;100225.87;2802898;83;21173;-90
2022/05/27 00:32:18;;;;;;;4.47;1.95;;;;;;;18.81;64.71;100218.63;2801156;83;21629;-91
2022/05/27 00:36:19;;;;;;;3.58;1.17;;;;;;;18.83;64.57;100209.00;2827630;82;21022;-89
2022/05/27 00:40:22;;;;;;;2.02;1.35;;;;;;;18.84;64.41;100207.48;2843201;81;21649;-91
2022/05/27 00:44:23;;;;;;;2.20;1.47;;;;;;;18.83;64.67;100202.27;2811090;83;21034;-91
2022/05/27 00:48:26;;;;;;;3.05;1.52;;;;;;;18.80;64.62;100195.41;2837335;82;20998;-90
2022/05/27 00:52:31;;;;;;;8.68;1.98;;;;;;;18.77;64.70;100194.42;2834173;82;21077;-90
2022/05/27 00:56:37;;;;;;;2.53;1.43;;;;;;;18.75;64.69;100190.23;2828616;82;21066;-91
2022/05/27 01:00:39;;;;;;;2.85;1.52;;;;;;;18.74;64.71;100183.16;2844897;82;21165;-89
2022/05/27 01:04:41;;;;;;;3.05;1.32;;;;;;;18.76;64.54;100186.52;2834325;82;21010;-91
2022/05/27 01:08:44;;;;;;;1.35;1.25;;;;;;;18.76;64.42;100182.47;2780399;82;21595;-92
2022/05/27 01:13:24;;;;;;;2.25;1.50;;;;;;;18.79;64.38;100169.98;2825573;83;21137;-90
2022/05/27 01:17:37;;;;;;;1.82;1.50;;;;;;;18.79;64.23;100173.52;2819663;83;21086;-90
2022/05/27 01:22:22;;;;;;;5.60;2.42;;;;;;;18.85;64.26;100169.23;2831150;81;20998;-91
2022/05/27 01:26:38;;;;;;;1.22;0.95;;;;;;;18.85;63.99;100159.80;2818612;83;21054;-91
2022/05/27 01:31:09;;;;;;;3.00;1.75;;;;;;;18.88;64.06;100154.57;2842048;82;21038;-91
2022/05/27 01:35:38;;;;;;;4.33;1.47;;;;;;;18.91;63.94;100152.84;2832063;82;21038;-90
2022/05/27 01:39:57;;;;;;;6.22;1.67;;;;;;;18.95;63.84;100142.88;2833530;82;21034;-92
2022/05/27 01:44:11;;;;;;;7.37;1.98;;;;;;;19.01;63.84;100140.48;2663730;87;21073;-89
2022/05/27 01:48:20;;;;;;;3.35;1.77;;;;;;;19.03;63.27;100129.85;2662894;87;21479;-91
2022/05/27 01:52:30;;;;;;;4.58;1.20;;;;;;;19.05;63.14;100133.70;2682901;87;21077;-91
2022/05/27 01:56:39;;;;;;;2.80;1.15;;;;;;;19.09;63.13;100122.89;2689615;87;21137;-90
2022/05/27 02:00:44;;;;;;;2.55;1.30;;;;;;;19.12;63.16;100117.12;2709860;86;21035;-90
2022/05/27 02:04:58;;;;;;;3.40;1.52;;;;;;;19.11;62.68;100115.45;2704286;86;21035;-90
2022/05/27 02:09:16;;;;;;;2.80;1.57;;;;;;;19.19;62.82;100117.22;2681647;88;21481;-89
2022/05/27 02:13:32;;;;;;;2.65;1.32;;;;;;;19.21;62.47;100114.64;2674552;87;21580;-92
2022/05/27 02:17:48;;;;;;;3.65;1.55;;;;;;;19.24;62.80;100112.91;2642219;88;21059;-90
2022/05/27 02:22:03;;;;;;;2.47;0.80;;;;;;;19.29;62.93;100107.49;2771824;84;21086;-90
2022/05/27 02:26:09;;;;;;;1.63;0.70;;;;;;;19.30;62.67;100102.42;2716538;86;21438;-90
2022/05/27 02:30:14;;;;;;;2.05;1.22;;;;;;;19.34;62.78;100087.00;2771603;84;21556;-91
2022/05/27 02:38:48;;;;;;;0.90;0.80;;;;;;;19.36;62.79;100078.23;2765061;86;21096;-91
2022/05/27 02:43:17;;;;;;;1.90;1.37;;;;;;;19.37;62.63;100068.27;2751461;85;21046;-89
2022/05/27 02:47:38;;;;;;;1.67;1.50;;;;;;;19.37;62.67;100064.23;2717394;85;21061;-90
2022/05/27 02:52:23;;;;;;;4.37;1.25;;;;;;;19.37;62.76;100063.73;2771104;85;21093;-91
2022/05/27 02:56:44;;;;;;;2.15;1.00;;;;;;;19.38;62.79;100060.00;2826727;83;20999;-91
2022/05/27 03:00:46;;;;;;;2.70;1.12;;;;;;;19.37;63.04;100058.34;2780392;84;21043;-91
2022/05/27 03:04:54;;;;;;;4.53;0.93;;;;;;;19.40;62.99;100063.84;2805511;84;21006;-91
2022/05/27 03:09:22;;;;;;;6.15;1.40;;;;;;;19.40;62.98;100055.75;2811935;84;21018;-92
2022/05/27 03:13:45;;;;;;;3.22;1.55;;;;;;;19.39;63.00;100055.44;2812789;84;21554;-92
2022/05/27 03:18:15;;;;;;;3.58;1.75;;;;;;;19.40;62.90;100052.56;2811892;84;21018;-92
2022/05/27 03:22:54;;;;;;;2.00;0.95;;;;;;;19.44;62.54;100049.48;2812931;84;21023;-89
2022/05/27 03:27:27;;;;;;;2.33;1.82;;;;;;;19.48;62.65;100049.41;2812490;84;21015;-91
2022/05/27 03:31:35;;;;;;;3.90;1.00;;;;;;;19.49;62.67;100051.08;2795196;84;21083;-89
2022/05/27 03:35:45;;;;;;;4.80;1.25;;;;;;;19.45;62.76;100041.17;2800003;84;21220;-90
2022/05/27 03:40:03;;;;;;;3.60;1.67;;;;;;;19.45;62.49;100030.92;2780231;84;21039;-91
2022/05/27 03:44:06;;;;;;;12.07;3.27;;;;;;;19.48;62.54;100024.64;2771606;84;21573;-89
2022/05/27 03:48:07;;;;;;;2.65;1.05;;;;;;;19.50;63.00;100023.93;2773518;84;21062;-91
2022/05/27 03:52:25;;;;;;;3.95;1.15;;;;;;;19.48;62.41;100024.64;2751506;84;20999;-91
2022/05/27 03:56:28;;;;;;;1.65;1.02;;;;;;;19.49;62.49;100029.01;2797945;84;21022;-91
2022/05/27 04:00:29;;;;;;;2.05;1.10;;;;;;;19.52;62.85;100030.47;2810821;82;21019;-87
2022/05/27 04:04:30;;;;;;;1.67;0.82;;;;;;;19.52;63.04;100034.02;2809577;84;21045;-90
2022/05/27 04:08:32;;;;;;;3.15;1.37;;;;;;;19.48;62.96;100034.08;2823967;83;21098;-91
2022/05/27 04:12:33;;;;;;;3.37;1.32;;;;;;;19.54;63.01;100017.62;2771975;84;21101;-89
2022/05/27 04:16:34;;;;;;;3.37;1.12;;;;;;;19.53;63.28;100016.80;2754682;85;21011;-89
2022/05/27 04:20:35;;;;;;;2.00;0.90;;;;;;;19.52;63.00;100012.94;2762528;85;21057;-88
2022/05/27 04:24:37;;;;;;;3.85;1.67;;;;;;;19.57;63.19;100017.27;2772037;83;21026;-87
2022/05/27 04:28:38;;;;;;;8.70;2.15;;;;;;;19.53;63.08;100009.20;2789611;84;21061;-89
2022/05/27 04:32:39;;;;;;;1.65;1.05;;;;;;;19.57;63.43;100015.06;2782382;84;23297;-89
2022/05/27 04:36:40;;;;;;;6.60;0.85;;;;;;;19.54;63.66;100011.73;2812324;83;21020;-88
2022/05/27 04:40:41;;;;;;;3.58;1.40;;;;;;;19.58;63.71;100015.38;2746972;84;21045;-89
2022/05/27 04:44:43;;;;;;;4.00;1.42;;;;;;;19.57;63.88;100010.52;2818815;83;21050;-88
2022/05/27 04:48:44;;;;;;;9.53;1.77;;;;;;;19.58;63.45;100006.80;2816804;83;21042;-88
2022/05/27 04:52:45;;;;;;;2.10;1.22;;;;;;;19.62;63.25;100005.88;2819274;83;21143;-88
2022/05/27 04:56:46;;;;;;;7.70;1.27;;;;;;;19.62;63.39;100005.88;2772345;84;21090;-89
2022/05/27 05:00:49;;;;;;;2.90;1.10;;;;;;;19.61;63.47;100005.55;2823983;82;21053;-89
2022/05/27 05:04:52;;;;;;;11.95;1.72;;;;;;;19.61;63.71;100005.05;2841060;82;21053;-89
2022/05/27 05:08:53;;;;;;;2.17;1.40;;;;;;;19.63;63.94;99996.75;2828279;82;21056;-88
2022/05/27 05:12:54;;;;;;;8.55;1.98;;;;;;;19.60;64.04;99990.39;2806978;83;21014;-89
2022/05/27 05:16:55;;;;;;;2.67;0.88;;;;;;;19.61;64.76;99989.37;2850184;82;21061;-89
2022/05/27 05:20:56;;;;;;;21.80;3.75;;;;;;;19.57;63.87;99990.28;2831199;82;21027;-89
2022/05/27 05:24:58;;;;;;;8.38;2.67;;;;;;;19.56;64.58;99991.31;2834410;82;21555;-88
2022/05/27 05:28:59;;;;;;;4.25;1.10;;;;;;;19.49;64.20;99989.89;2819750;83;21026;-87
2022/05/27 05:33:00;;;;;;;4.60;1.72;;;;;;;19.43;64.97;99996.03;2822696;83;21058;-88
2022/05/27 05:37:01;;;;;;;4.08;1.47;;;;;;;19.34;65.55;100001.23;2849916;82;21097;-88
2022/05/27 05:41:02;;;;;;;4.58;1.72;;;;;;;19.23;65.85;100004.73;2832158;82;21026;-88
2022/05/27 05:45:05;;;;;;;4.50;1.62;;;;;;;19.27;66.09;100003.86;2818568;83;21090;-88
2022/05/27 05:49:06;;;;;;;4.53;1.60;;;;;;;19.15;66.68;99997.27;2831812;82;21041;-88
2022/05/27 05:53:07;;;;;;;4.28;1.40;;;;;;;19.05;66.84;99988.14;2830175;82;21062;-88
2022/05/27 05:57:08;;;;;;;5.37;2.10;;;;;;;19.12;67.84;99997.16;2817614;83;21078;-89
2022/05/27 06:01:09;;;;;;;3.40;1.90;;;;;;;18.97;68.80;100003.37;2817587;82;21058;-88
2022/05/27 06:05:10;;;;;;;1.57;1.47;;;;;;;18.76;69.96;100004.66;2844027;82;21041;-88
2022/05/27 06:09:11;;;;;;;3.42;2.05;;;;;;;18.67;70.79;100006.60;2821657;83;20987;-89
2022/05/27 06:13:14;;;;;;;3.92;2.17;;;;;;;18.43;72.35;100009.05;2785130;83;21055;-88
2022/05/27 06:17:15;;;;;;;3.20;2.02;;;;;;;18.33;73.12;100019.59;2718966;85;21032;-88
2022/05/27 06:21:16;;;;;;;4.60;2.05;;;;;;;18.18;74.93;100015.53;2785053;85;20984;-88
2022/05/27 06:25:18;;;;;;;6.58;2.30;;;;;;;18.07;76.72;100025.38;2787517;84;21003;-89
2022/05/27 06:37:58;;;;;;;3.95;2.45;;;;;;;17.89;79.57;100029.19;2811740;83;21038;-88
2022/05/27 06:41:59;;;;;;;2.60;2.37;;;;;;;17.89;81.72;100026.49;2784490;84;21054;-89
2022/05/27 06:46:00;;;;;;;4.28;2.47;;;;;;;17.88;81.91;100032.04;2840869;82;21115;-88
2022/05/27 06:50:02;;;;;;;3.75;2.70;;;;;;;17.76;82.73;100041.89;2806984;82;20990;-87
2022/05/27 06:54:05;;;;;;;4.92;3.17;;;;;;;17.67;83.46;100042.45;2836279;82;21038;-88
2022/05/27 06:58:06;;;;;;;3.65;3.12;;;;;;;17.39;85.63;100042.12;2845191;82;21061;-89
2022/05/27 07:02:08;;;;;;;4.28;3.12;;;;;;;17.29;86.54;100028.91;2866566;82;21030;-89
2022/05/27 07:06:11;;;;;;;4.28;3.87;;;;;;;17.12;89.11;100040.25;2783775;83;21072;-87
2022/05/27 07:10:12;;;;;;;5.42;3.65;;;;;;;16.99;90.52;100044.32;2797268;82;21026;-87
2022/05/27 07:14:15;;;;;;;17.12;4.28;;;;;;;16.85;92.25;100055.75;2847879;82;21349;-88
2022/05/27 07:18:17;;;;;;;3.20;2.90;;;;;;;16.57;93.27;100049.45;2837822;82;21576;-88
2022/05/27 07:22:18;;;;;;;5.28;4.03;;;;;;;16.40;94.87;100056.19;2871122;81;21014;-88
2022/05/27 07:26:24;;;;;;;4.97;2.90;;;;;;;16.24;95.95;100056.20;2842627;82;21041;-89
2022/05/27 07:30:25;;;;;;;5.90;4.53;;;;;;;16.18;97.20;100060.91;2822497;82;21018;-87
2022/05/27 07:34:27;;;;;;;3.05;2.75;;;;;;;16.04;98.74;100059.73;2849662;82;21005;-88
2022/05/27 07:38:28;;;;;;;4.58;2.58;;;;;;;15.75;100.00;100061.00;2820512;82;21065;-88
2022/05/27 07:42:29;;;;;;;4.65;3.35;;;;;;;15.71;100.00;100051.95;2873760;82;21049;-88
2022/05/27 07:46:33;;;;;;;3.87;2.40;;;;;;;15.70;100.00;100057.47;2790640;83;21058;-88
2022/05/27 07:50:35;;;;;;;5.80;3.20;;;;;;;15.69;100.00;100062.50;2844547;82;21065;-88
2022/05/27 07:54:36;;;;;;;7.58;3.25;;;;;;;15.74;100.00;100056.65;2844613;82;21053;-88
2022/05/27 07:58:38;;;;;;;2.80;2.45;;;;;;;15.71;100.00;100053.30;2811221;83;21049;-88
2022/05/27 08:02:41;;;;;;;3.20;2.75;;;;;;;15.75;100.00;100052.47;2783399;83;29326;-88
2022/05/27 08:06:42;;;;;;;2.87;2.12;;;;;;;15.65;100.00;100055.31;2840772;82;21033;-89
2022/05/27 08:10:44;;;;;;;4.65;1.60;;;;;;;15.63;100.00;100066.70;2852004;82;21116;-88
2022/05/27 08:14:45;;;;;;;2.50;2.27;;;;;;;15.66;98.85;100072.22;2829152;82;21176;-88
2022/05/27 08:18:46;;;;;;;4.65;1.65;;;;;;;15.59;97.04;100072.03;2856956;82;21080;-89
2022/05/27 08:22:48;;;;;;;7.55;1.20;;;;;;;15.41;96.06;100076.18;2829415;82;21022;-87
2022/05/27 08:26:49;;;;;;;3.37;1.27;;;;;;;15.18;95.00;100060.70;2848599;82;21110;-85
2022/05/27 08:30:55;;;;;;;2.65;1.47;;;;;;;15.05;95.77;100066.52;2832782;82;21088;-85
2022/05/27 08:39:14;;;;;;;2.75;1.32;;;;;;;14.58;95.47;100079.77;2845850;82;21600;-85
2022/05/27 08:43:37;;;;;;;1.60;0.95;;;;;;;14.41;97.21;100074.30;2864546;81;20998;-85
2022/05/27 08:47:52;;;;;;;1.15;1.05;;;;;;;14.33;97.47;100079.57;2827915;82;21049;-85
2022/05/27 08:52:17;;;;;;;4.08;1.75;;;;;;;14.25;97.43;100092.41;2845991;80;21030;-86
2022/05/27 09:00:49;;;;;;;2.67;1.12;;;;;;;14.18;99.71;100098.53;2723927;85;21084;-86
2022/05/27 09:05:15;;;;;;;2.00;1.22;;;;;;;14.21;99.12;100102.23;2687661;86;21097;-85
2022/05/27 09:09:24;;;;;;;3.05;1.47;;;;;;;14.15;100.00;100106.36;2724492;86;21044;-85
2022/05/27 09:13:43;;;;;;;4.75;2.08;;;;;;;14.08;100.00;100124.02;2710771;85;21113;-85
2022/05/27 09:18:12;;;;;;;3.83;1.30;;;;;;;14.00;100.00;100113.57;2727506;85;21148;-85
2022/05/27 09:22:34;;;;;;;2.95;1.82;;;;;;;13.96;100.00;100123.41;2687746;86;21125;-85
2022/05/27 09:27:14;;;;;;;3.40;1.45;;;;;;;13.93;100.00;100130.38;2711196;86;21034;-85
2022/05/27 09:31:21;;;;;;;6.22;2.37;;;;;;;13.90;100.00;100136.88;2806253;83;21077;-85
2022/05/27 09:35:49;;;;;;;2.80;2.60;;;;;;;13.96;100.00;100125.57;2797273;83;21400;-85
2022/05/27 09:39:52;;;;;;;3.20;2.92;;;;;;;14.12;100.00;100135.58;2801402;83;21102;-86
2022/05/27 09:44:17;;;;;;;3.25;2.40;;;;;;;14.33;100.00;100142.96;2817803;83;21070;-85
2022/05/27 09:48:17;;;;;;;1.85;1.45;;;;;;;14.41;100.00;100147.03;2797252;83;21043;-86
2022/05/27 09:52:21;;;;;;;1.72;1.30;;;;;;;14.40;100.00;100139.52;2782221;83;20999;-86
2022/05/27 09:56:43;;;;;;;3.45;1.75;;;;;;;14.43;100.00;100136.53;2780402;83;20999;-86
2022/05/27 10:00:49;;;;;;;6.37;2.90;;;;;;;14.39;100.00;100145.02;2834265;82;21067;-86
2022/05/27 10:05:14;;;;;;;3.58;1.92;;;;;;;14.39;100.00;100141.00;2848507;81;21065;-86
2022/05/27 10:09:29;;;;;;;1.90;1.60;;;;;;;14.39;100.00;100145.02;2838230;82;21074;-86
2022/05/27 10:13:34;;;;;;;1.47;1.37;;;;;;;14.50;100.00;100127.87;2765844;82;21525;-87
2022/05/27 10:17:37;;;;;;;3.05;2.67;;;;;;;14.61;100.00;100110.23;2848111;81;21096;-87
2022/05/27 10:21:52;;;;;;;2.97;2.30;;;;;;;14.72;100.00;100106.48;2822167;82;21006;-87
2022/05/27 10:25:53;;;;;;;2.03;1.83;;;;;;;14.84;99.98;100112.41;2848219;82;21101;-87
2022/05/27 10:30:01;;;;;;;3.08;1.10;;;;;;;14.98;100.00;100117.20;2843956;82;21054;-87
2022/05/27 10:34:03;;;;;;;4.97;1.65;;;;;;;15.11;99.71;100113.22;2874281;80;20947;-88
2022/05/27 10:38:25;;;;;;;3.30;1.70;;;;;;;15.14;98.29;100110.25;2829090;82;21045;-88
2022/05/27 10:43:08;;;;;;;1.40;1.12;;;;;;;15.17;98.40;100119.30;2842482;81;20975;-87
2022/05/27 10:47:44;;;;;;;2.15;1.05;;;;;;;15.10;97.48;100114.22;2814924;82;21061;-88
2022/05/27 10:52:02;;;;;;;2.03;1.53;;;;;;;15.11;96.15;100106.04;2647307;87;21069;-87
2022/05/27 11:02:04;;;;;;;1.15;1.05;;;;;;;15.31;98.29;100099.58;2519923;93;21338;-88
2022/05/27 11:06:14;;;;;;;3.10;1.47;;;;;;;15.72;94.43;100114.45;2422707;94;21141;-88
2022/05/27 11:10:55;;;;;;;1.37;1.27;;;;;;;15.88;94.41;100107.45;2477028;94;21077;-87
2022/05/27 11:15:14;;;;;;;1.57;1.10;;;;;;;15.86;90.82;100098.25;2475439;95;21117;-88
2022/05/27 11:19:26;;;;;;;1.77;1.57;;;;;;;16.02;91.86;100081.36;2499522;93;21089;-86
2022/05/27 11:23:39;;;;;;;3.33;1.47;;;;;;;16.10;87.95;100086.72;2444609;95;21109;-88
2022/05/27 11:28:12;;;;;;;5.08;1.30;;;;;;;16.13;88.01;100093.11;2502589;92;21116;-88
2022/05/27 11:32:28;;;;;;;3.87;1.70;;;;;;;16.15;88.64;100057.22;2599761;89;21173;-88
2022/05/27 11:37:09;;;;;;;1.83;1.73;;;;;;;16.02;88.16;100089.41;2554964;90;21264;-87
2022/05/27 11:41:33;;;;;;;2.70;2.00;;;;;;;15.74;89.28;100106.25;2622654;88;21010;-88
2022/05/27 11:45:35;;;;;;;1.75;1.65;;;;;;;15.48;87.81;100104.00;2612425;89;21590;-87
2022/05/27 11:49:58;;;;;;;3.02;1.62;;;;;;;15.32;87.29;100086.03;2598575;90;21642;-88
2022/05/27 11:54:29;;;;;;;8.25;2.40;;;;;;;15.46;88.63;100070.34;2591927;89;21144;-88
2022/05/27 11:58:58;;;;;;;2.85;1.40;;;;;;;15.66;90.50;100074.90;2569009;90;21138;-89
2022/05/27 12:03:13;;;;;;;2.17;1.87;;;;;;;15.70;88.55;100073.56;2587676;89;21101;-88
2022/05/27 12:07:38;;;;;;;1.83;1.47;;;;;;;15.80;88.99;100074.27;2620825;90;21121;-88
2022/05/27 12:12:03;;;;;;;3.42;2.00;;;;;;;15.96;89.12;100063.25;2659594;86;20994;-88
2022/05/27 12:16:14;;;;;;;3.15;1.77;;;;;;;16.15;89.23;100066.09;2795239;84;21346;-89
2022/05/27 12:20:30;;;;;;;1.77;1.55;;;;;;;16.18;86.37;100061.73;2771149;84;21038;-88
2022/05/27 12:24:49;;;;;;;2.33;1.67;;;;;;;16.24;87.94;100053.03;2761261;84;21041;-88
2022/05/27 12:28:50;;;;;;;4.15;1.70;;;;;;;16.33;86.91;100052.52;2766335;83;21657;-89
2022/05/27 12:32:51;;;;;;;2.35;1.82;;;;;;;16.46;87.04;100006.36;2789710;84;21073;-89
2022/05/27 12:36:56;;;;;;;2.95;1.35;;;;;;;16.50;85.94;100021.59;2765826;85;21041;-89
2022/05/27 12:41:07;;;;;;;2.05;1.22;;;;;;;16.69;87.48;100011.81;2777622;84;21079;-90
2022/05/27 12:45:40;;;;;;;5.80;2.35;;;;;;;17.00;85.23;100019.66;2756430;85;21029;-87
2022/05/27 12:49:44;;;;;;;2.45;1.90;;;;;;;17.12;83.54;100006.14;2699787;85;21096;-88
2022/05/27 12:53:55;;;;;;;2.17;1.67;;;;;;;17.06;84.13;100023.46;2769255;84;21154;-87
2022/05/27 13:02:34;;;;;;;5.80;2.40;;;;;;;17.03;83.43;99988.89;2811185;83;21026;-89
2022/05/27 13:06:39;;;;;;;4.25;1.80;;;;;;;17.27;84.80;99996.81;2842916;83;21058;-89
2022/05/27 13:10:47;;;;;;;3.67;1.98;;;;;;;17.43;83.38;99979.44;2820552;83;21528;-87
2022/05/27 13:14:51;;;;;;;4.62;1.90;;;;;;;17.66;84.75;99980.77;2842149;83;21042;-90
2022/05/27 13:19:00;;;;;;;6.17;2.98;;;;;;;18.06;84.99;99968.00;2792564;84;21485;-90
2022/05/27 13:23:10;;;;;;;4.60;2.15;;;;;;;18.44;82.36;99946.09;2813083;84;21065;-89
2022/05/27 13:27:28;;;;;;;2.72;1.87;;;;;;;18.71;80.89;99940.55;2810456;83;21084;-90
2022/05/27 13:31:40;;;;;;;4.33;2.00;;;;;;;18.83;79.13;99934.16;2836910;82;21034;-90
2022/05/27 13:35:44;;;;;;;6.35;3.15;;;;;;;19.02;79.25;99931.42;2812323;83;21106;-89
2022/05/27 13:39:51;;;;;;;2.42;2.08;;;;;;;19.17;78.42;99923.81;2808320;84;21055;-90
2022/05/27 13:43:53;;;;;;;5.53;2.33;;;;;;;19.32;77.39;99924.56;2804663;84;21602;-90
2022/05/27 13:48:00;;;;;;;2.42;2.22;;;;;;;19.28;77.65;99934.07;2783119;84;21058;-90
2022/05/27 13:52:22;;;;;;;4.85;2.17;;;;;;;19.23;77.18;99925.20;2805490;83;21051;-89
2022/05/27 13:56:34;;;;;;;3.83;1.90;;;;;;;19.20;74.62;99917.50;2824908;83;21058;-89
2022/05/27 14:00:38;;;;;;;5.03;1.98;;;;;;;19.33;73.49;99911.41;2805640;83;21000;-90
2022/05/27 14:04:59;;;;;;;1.92;1.30;;;;;;;19.32;74.33;99907.03;2776256;84;21106;-89
2022/05/27 14:09:24;;;;;;;2.80;2.17;;;;;;;19.49;72.74;99896.84;2824742;82;21062;-90
2022/05/27 14:13:32;;;;;;;8.63;2.17;;;;;;;19.63;73.87;99910.42;2854931;82;21164;-90
2022/05/27 14:17:43;;;;;;;3.80;2.70;;;;;;;19.76;72.72;99886.25;2785461;83;21082;-89
2022/05/27 14:26:15;;;;;;;4.58;1.98;;;;;;;19.42;73.98;99898.62;2675233;89;21028;-88
2022/05/27 14:30:28;;;;;;;5.90;2.30;;;;;;;19.28;74.06;99894.16;2675636;87;21077;-88
2022/05/27 14:34:32;;;;;;;11.12;3.17;;;;;;;19.30;75.84;99886.17;2659203;87;21661;-89
2022/05/27 14:38:37;;;;;;;5.97;2.65;;;;;;;19.65;75.90;99885.42;2707544;87;21013;-90
2022/05/27 14:42:39;;;;;;;2.50;2.20;;;;;;;19.90;74.71;99875.56;2654331;87;21151;-90
2022/05/27 14:46:45;;;;;;;3.58;2.52;;;;;;;20.24;74.53;99857.70;2703617;86;21055;-90
2022/05/27 14:50:46;;;;;;;2.30;2.08;;;;;;;20.46;72.04;99847.63;2680538;87;21026;-90
2022/05/27 14:54:54;;;;;;;2.87;2.65;;;;;;;20.56;71.50;99856.70;2681845;87;21099;-90
2022/05/27 14:59:06;;;;;;;2.90;2.40;;;;;;;20.72;70.92;99851.98;2636916;89;21598;-90
2022/05/27 15:03:35;;;;;;;4.08;2.00;;;;;;;20.71;68.66;99851.67;2794138;84;21042;-89
2022/05/27 15:07:49;;;;;;;3.75;2.20;;;;;;;20.36;68.15;99856.11;2850699;81;21078;-90
2022/05/27 15:11:51;;;;;;;3.45;1.90;;;;;;;20.03;70.28;99855.41;2799961;82;21109;-89
2022/05/27 15:15:54;;;;;;;2.62;2.37;;;;;;;19.70;70.60;99857.37;2820288;82;21041;-90
2022/05/27 15:20:06;;;;;;;2.85;2.15;;;;;;;19.34;71.13;99856.44;2797932;84;21613;-89
2022/05/27 15:24:21;;;;;;;5.22;2.20;;;;;;;19.04;73.41;99871.42;2795321;85;21074;-90
2022/05/27 15:37:03;;;;;;;4.15;2.47;;;;;;;18.37;77.03;99870.10;2799314;83;21764;-88
2022/05/27 15:41:08;;;;;;;3.45;2.45;;;;;;;18.37;82.25;99855.30;2813837;83;21491;-89
2022/05/27 15:45:09;;;;;;;5.12;2.42;;;;;;;18.64;79.55;99885.23;2849918;82;21041;-90
2022/05/27 15:49:12;;;;;;;2.83;1.60;;;;;;;18.52;76.69;99878.16;2797703;82;21029;-89
2022/05/27 15:53:17;;;;;;;7.83;2.27;;;;;;;18.26;73.94;99875.95;2841046;82;21009;-90
2022/05/27 15:57:18;;;;;;;3.67;1.98;;;;;;;18.03;76.37;99883.61;2817950;83;21022;-89
2022/05/27 16:01:20;;;;;;;6.95;3.50;;;;;;;17.84;77.28;99883.62;2815470;83;21149;-90
2022/05/27 16:05:21;;;;;;;3.35;1.45;;;;;;;17.95;79.09;99879.64;2813972;83;20999;-89
2022/05/27 16:09:22;;;;;;;1.70;1.60;;;;;;;17.96;74.17;99871.89;2811150;83;21309;-89
2022/05/27 16:13:24;;;;;;;2.70;0.88;;;;;;;18.24;74.39;99869.42;2812672;83;21091;-90
2022/05/27 16:21:45;;;;;;;3.12;1.00;;;;;;;18.41;69.91;99858.45;2813039;83;21079;-89
2022/05/27 16:25:47;;;;;;;2.77;1.35;;;;;;;18.43;70.87;99869.88;2809029;83;21073;-88
2022/05/27 16:29:48;;;;;;;1.35;0.90;;;;;;;18.35;68.91;99858.69;2810093;83;21070;-88
2022/05/27 16:33:49;;;;;;;4.75;1.25;;;;;;;18.22;68.59;99878.70;2812522;84;21696;-89
2022/05/27 16:37:50;;;;;;;0.95;0.93;;;;;;;18.15;69.38;99873.73;2799393;83;21129;-89
2022/05/27 16:41:52;;;;;;;2.00;1.30;;;;;;;18.07;70.14;99882.21;2732137;86;20971;-89
2022/05/27 16:45:53;;;;;;;2.83;1.17;;;;;;;17.99;68.95;99889.86;2755929;85;21003;-86
2022/05/27 16:49:54;;;;;;;3.25;1.32;;;;;;;17.98;70.37;99883.30;2754973;84;21066;-89
2022/05/27 16:53:55;;;;;;;6.80;1.22;;;;;;;17.94;69.77;99890.08;2756007;85;21086;-89
2022/05/27 16:57:58;;;;;;;3.87;1.87;;;;;;;17.89;69.80;99888.45;2721182;86;20987;-89
2022/05/27 17:01:59;;;;;;;5.42;1.65;;;;;;;17.82;70.50;99899.93;2712358;84;21049;-90
2022/05/27 17:06:00;;;;;;;2.37;1.42;;;;;;;17.73;71.36;99904.23;2792250;83;21014;-89
2022/05/27 17:10:02;;;;;;;4.58;2.17;;;;;;;17.53;71.83;99900.20;2822298;82;21026;-88
2022/05/27 17:14:03;;;;;;;10.18;1.90;;;;;;;17.37;72.22;99909.22;2815978;84;21333;-90
2022/05/27 17:18:05;;;;;;;2.10;1.37;;;;;;;17.28;73.10;99907.09;2795912;83;21024;-90
2022/05/27 17:22:08;;;;;;;4.10;2.00;;;;;;;17.25;74.00;99916.86;2795421;83;21110;-89
2022/05/27 17:26:11;;;;;;;4.15;1.42;;;;;;;17.33;74.25;99911.13;2781353;83;21018;-90
2022/05/27 17:30:13;;;;;;;4.00;1.90;;;;;;;17.33;74.34;99906.56;2778148;84;20991;-89
2022/05/27 17:34:16;;;;;;;2.47;1.72;;;;;;;17.29;73.98;99909.29;2807031;83;21031;-87
2022/05/27 17:38:18;;;;;;;4.42;2.15;;;;;;;17.25;74.30;99904.77;2805325;84;21046;-88
2022/05/27 17:42:19;;;;;;;5.28;1.50;;;;;;;17.23;74.50;99904.64;2808917;84;21058;-89
2022/05/27 17:46:21;;;;;;;3.45;2.15;;;;;;;17.18;74.88;99909.20;2807593;83;21504;-88
2022/05/27 17:54:43;;;;;;;4.85;2.25;;;;;;;17.08;75.46;99909.92;2810452;83;21067;-89
2022/05/27 17:58:45;;;;;;;3.37;2.08;;;;;;;16.96;75.85;99915.69;2803696;83;21042;-91
2022/05/27 18:02:46;;;;;;;3.25;1.77;;;;;;;16.92;76.13;99915.72;2793882;83;21082;-92
2022/05/27 18:06:48;;;;;;;4.17;2.22;;;;;;;16.87;75.95;99918.08;2761787;83;21090;-95
2022/05/27 18:10:49;;;;;;;4.75;1.95;;;;;;;16.81;75.90;99916.09;2788046;83;21066;-92
2022/05/27 18:14:50;;;;;;;2.95;2.17;;;;;;;16.74;75.79;99920.52;2790710;83;21014;-89
2022/05/27 18:18:51;;;;;;;4.17;2.58;;;;;;;16.64;75.92;99916.70;2796749;82;21010;-91
2022/05/27 18:22:52;;;;;;;6.45;2.35;;;;;;;16.54;76.15;99922.27;2793484;82;21022;-89
2022/05/27 18:26:53;;;;;;;3.02;1.95;;;;;;;16.39;75.80;99925.67;2830877;82;21010;-90
2022/05/27 18:30:55;;;;;;;3.00;2.40;;;;;;;16.23;75.27;99931.08;2804681;82;21025;-92
2022/05/27 18:34:56;;;;;;;3.30;2.17;;;;;;;16.10;75.62;99941.83;2844282;82;21069;-88
2022/05/27 18:38:57;;;;;;;2.52;2.27;;;;;;;15.97;75.83;99945.04;2842409;82;21074;-91
2022/05/27 18:42:58;;;;;;;3.15;1.77;;;;;;;15.87;76.57;99950.22;2838805;82;21014;-90
2022/05/27 18:46:59;;;;;;;6.92;3.15;;;;;;;15.76;76.69;99953.59;2794117;82;21055;-90
2022/05/27 18:51:00;;;;;;;9.10;2.67;;;;;;;15.70;76.46;99965.82;2816745;83;21515;-90
2022/05/27 18:55:03;;;;;;;4.67;2.85;;;;;;;15.60;76.25;99970.49;2818647;83;21061;-90
2022/05/27 18:59:04;;;;;;;3.25;1.95;;;;;;;15.55;76.00;99974.18;2793401;82;20990;-92
2022/05/27 19:03:06;;;;;;;6.37;2.40;;;;;;;15.46;75.88;99981.38;2790183;85;21105;-90
2022/05/27 19:07:07;;;;;;;5.60;2.05;;;;;;;15.30;75.72;99994.25;2841515;83;21050;-90
2022/05/27 19:11:12;;;;;;;15.85;3.75;;;;;;;15.04;75.21;100031.84;2825923;82;21061;-90
2022/05/27 19:15:15;;;;;;;5.97;2.37;;;;;;;14.85;75.53;100036.44;2807088;83;21053;-91
2022/05/27 19:23:37;;;;;;;16.45;14.93;;;;;;;14.65;73.39;100030.47;2810467;83;21506;-90
2022/05/27 19:27:38;;;;;;;16.10;14.45;;;;;;;14.62;72.51;100039.64;2818655;83;21080;-90
2022/05/27 19:31:40;;;;;;;15.00;13.50;;;;;;;14.58;70.61;100040.96;2816038;82;21093;-90
2022/05/27 19:35:43;;;;;;;11.60;7.58;;;;;;;14.54;70.49;100040.42;2815843;83;21070;-89
2022/05/27 19:39:44;;;;;;;12.15;11.08;;;;;;;14.47;69.88;100047.42;2838832;82;21041;-90
2022/05/27 19:43:48;;;;;;;21.33;19.07;;;;;;;14.45;69.64;100045.88;2750171;83;21029;-90
2022/05/27 19:47:51;;;;;;;12.35;8.28;;;;;;;14.40;69.14;100043.19;2850555;82;20982;-90
2022/05/27 19:51:54;;;;;;;15.72;11.88;;;;;;;14.32;68.62;100060.50;2818905;82;21113;-91
2022/05/27 19:55:55;;;;;;;18.95;13.35;;;;;;;14.19;70.29;100062.77;2832174;83;21577;-90
2022/05/27 19:59:56;;;;;;;13.25;11.12;;;;;;;14.03;71.86;100057.61;2840819;82;21691;-91
2022/05/27 20:08:17;;;;;;;34.65;23.05;;;;;;;13.70;73.21;100060.83;2775605;83;21029;-90
2022/05/27 20:12:21;;;;;;;25.37;20.15;;;;;;;13.62;73.00;100058.05;2843256;82;21462;-90
2022/05/27 20:16:22;;;;;;;15.83;11.28;;;;;;;13.50;73.43;100068.13;2828432;82;21594;-90